Time;durP1;ratioP1;P1;durP2;ratioP2;P2;SDS_P1;SDS_P2;PMS_P1;PMS_P2;Temp;Humidity;BMP_temperature;BMP_pressure;BME280_temperature;BME280_humidity;BME280_pressure;Samples;Min_cycle;Max_cycle;Signal;HPM_P1;HPM_P2
2022/10/08 00:00:47;;;;;;;;;4.00;2.67;;;;;14.96;54.70;101540.50;4979078;28;45321;-69
2022/10/08 00:03:13;;;;;;;;;5.00;4.00;;;;;15.41;54.51;101618.91;4979281;28;45365;-69
2022/10/08 00:05:50;;;;;;;;;6.67;5.00;;;;;15.18;54.36;101572.16;4978001;28;45556;-70
2022/10/08 00:08:15;;;;;;;;;5.33;4.00;;;;;15.39;54.39;101612.88;4980148;28;46981;-70
2022/10/08 00:10:40;;;;;;;;;7.33;5.33;;;;;15.17;54.47;101573.16;4979041;28;45313;-69
2022/10/08 00:13:16;;;;;;;;;8.00;5.00;;;;;15.24;54.29;101584.97;4978914;28;45428;-70
2022/10/08 00:15:42;;;;;;;;;5.67;3.67;;;;;15.38;54.54;101613.03;4979226;28;45686;-69
2022/10/08 00:18:07;;;;;;;;;4.00;4.00;;;;;15.09;54.43;101571.25;4978534;28;45442;-69
2022/10/08 00:20:33;;;;;;;;;6.67;4.67;;;;;15.09;54.41;101559.72;4978883;28;45317;-70
2022/10/08 00:23:00;;;;;;;;;5.00;3.00;;;;;15.36;54.48;101615.88;4978775;28;45416;-71
2022/10/08 00:25:26;;;;;;;;;4.33;3.67;;;;;15.32;54.81;101617.19;4979022;28;45460;-69
2022/10/08 00:27:51;;;;;;;;;4.00;4.00;;;;;15.31;54.71;101615.50;4978698;28;45524;-71
2022/10/08 00:30:17;;;;;;;;;4.00;4.00;;;;;14.86;54.96;101549.47;4978461;28;49725;-68
2022/10/08 00:32:43;;;;;;;;;4.67;3.33;;;;;15.25;54.92;101613.44;4978957;28;45337;-73
2022/10/08 00:35:08;;;;;;;;;5.67;2.67;;;;;15.19;55.19;101614.88;4978803;28;45243;-69
2022/10/08 00:37:33;;;;;;;;;8.00;7.67;;;;;15.08;55.19;101584.81;4978339;28;45602;-71
2022/10/08 00:39:59;;;;;;;;;5.33;5.00;;;;;15.22;55.47;101619.09;4977064;28;46149;-68
2022/10/08 00:42:24;;;;;;;;;8.00;4.00;;;;;15.21;55.30;101628.09;4976414;28;54419;-69
2022/10/08 00:44:57;;;;;;;;;1.67;1.67;;;;;14.90;55.62;101566.06;4978610;28;45436;-70
2022/10/08 00:47:27;;;;;;;;;3.67;3.67;;;;;14.89;55.90;101570.56;4978442;28;45731;-68
2022/10/08 00:49:56;;;;;;;;;4.00;4.00;;;;;15.11;55.47;101622.00;4978277;28;45448;-69
2022/10/08 00:52:25;;;;;;;;;4.67;3.67;;;;;15.11;55.74;101622.00;4978037;28;45491;-69
2022/10/08 00:54:51;;;;;;;;;8.67;4.33;;;;;15.05;55.96;101622.63;4978400;28;45567;-70
2022/10/08 00:57:18;;;;;;;;;4.00;4.00;;;;;15.12;55.77;101629.03;4978042;28;46068;-70
2022/10/08 00:59:43;;;;;;;;;3.00;3.00;;;;;15.13;55.67;101630.72;4978558;28;45440;-69
2022/10/08 01:02:09;;;;;;;;;5.00;4.00;;;;;15.11;55.99;101627.34;4978269;28;45386;-69
2022/10/08 01:04:37;;;;;;;;;8.33;3.67;;;;;14.84;56.04;101588.94;4978059;28;45459;-68
2022/10/08 01:07:26;;;;;;;;;4.67;4.67;;;;;15.05;56.22;101623.47;4977224;28;47773;-69
2022/10/08 01:10:04;;;;;;;;;6.33;4.00;;;;;15.03;56.31;101624.59;4977319;28;45593;-69
2022/10/08 01:12:49;;;;;;;;;5.00;4.00;;;;;15.01;56.64;101621.22;4977982;28;45486;-69
2022/10/08 01:15:27;;;;;;;;;3.67;3.00;;;;;14.99;56.56;101620.53;4993027;28;45488;-68
2022/10/08 01:18:09;;;;;;;;;4.33;4.33;;;;;14.98;56.89;101629.53;4977747;28;45795;-69
2022/10/08 01:21:13;;;;;;;;;6.67;5.00;;;;;14.96;56.82;101618.16;4976115;28;45502;-69
2022/10/08 01:24:11;;;;;;;;;5.00;4.33;;;;;14.93;56.82;101627.31;4977179;28;45328;-69
2022/10/08 01:26:47;;;;;;;;;4.33;2.00;;;;;14.93;56.99;101618.47;4967762;28;45390;-69
2022/10/08 01:29:37;;;;;;;;;3.00;3.00;;;;;14.81;57.32;101607.94;4957937;28;47537;-70
2022/10/08 01:32:09;;;;;;;;;3.33;2.00;;;;;14.44;57.58;101545.66;4958283;28;45512;-69
2022/10/08 01:34:41;;;;;;;;;5.33;4.00;;;;;14.82;57.49;101611.50;4958060;28;45425;-69
2022/10/08 01:37:19;;;;;;;;;7.67;6.00;;;;;14.81;58.01;101613.28;4957061;28;45330;-69
2022/10/08 01:39:48;;;;;;;;;7.33;3.00;;;;;14.36;58.06;101532.13;4972535;28;47846;-69
2022/10/08 01:42:16;;;;;;;;;3.00;2.00;;;;;14.81;58.21;101610.63;4957882;28;45293;-70
2022/10/08 01:44:49;;;;;;;;;3.33;2.67;;;;;14.78;58.24;101610.94;4956875;28;45480;-69
2022/10/08 01:47:22;;;;;;;;;3.33;3.33;;;;;14.78;59.01;101610.94;4958236;28;45445;-69
2022/10/08 01:49:52;;;;;;;;;3.00;2.00;;;;;14.67;58.78;101592.41;4956485;28;45775;-69
2022/10/08 01:52:27;;;;;;;;;3.00;3.00;;;;;14.78;58.76;101610.94;4956526;28;45305;-68
2022/10/08 01:54:58;;;;;;;;;2.33;2.33;;;;;14.75;59.08;101605.88;4968565;28;45642;-68
2022/10/08 01:57:26;;;;;;;;;3.00;2.00;;;;;14.54;58.99;101573.19;4977577;28;45348;-69
2022/10/08 01:59:58;;;;;;;;;3.00;1.33;;;;;14.51;59.33;101565.47;4980611;28;46810;-71
2022/10/08 02:02:24;;;;;;;;;2.67;1.33;;;;;14.76;59.24;101604.03;4978783;28;45394;-68
2022/10/08 02:04:52;;;;;;;;;1.33;1.33;;;;;14.75;59.61;101600.53;4980228;28;45372;-69
2022/10/08 02:07:31;;;;;;;;;3.67;2.67;;;;;14.74;59.64;101593.50;4981790;28;45241;-69
2022/10/08 02:10:24;;;;;;;;;2.00;2.00;;;;;14.73;59.03;101589.13;4980467;28;47909;-69
2022/10/08 02:12:49;;;;;;;;;3.67;2.33;;;;;14.73;59.51;101596.31;4978735;28;45306;-69
2022/10/08 02:15:19;;;;;;;;;3.00;3.00;;;;;14.74;59.46;101604.19;4980630;28;45737;-69
2022/10/08 02:17:56;;;;;;;;;4.00;3.00;;;;;14.72;59.48;101606.19;4980656;28;46027;-70
2022/10/08 02:20:51;;;;;;;;;3.00;2.67;;;;;14.71;59.36;101601.81;4979066;28;49075;-69
2022/10/08 02:23:21;;;;;;;;;1.33;1.00;;;;;14.73;59.47;101596.31;4980149;28;45319;-68
2022/10/08 02:25:58;;;;;;;;;5.67;5.00;;;;;14.72;59.35;101600.00;4980396;28;45484;-69
2022/10/08 02:28:33;;;;;;;;;1.67;1.67;;;;;14.77;59.59;101605.72;4980782;28;45352;-69
2022/10/08 02:31:18;;;;;;;;;3.33;2.00;;;;;14.75;59.58;101600.53;4978802;28;47046;-68
2022/10/08 02:34:07;;;;;;;;;2.33;1.67;;;;;14.20;60.00;101514.88;4979859;28;45440;-68
2022/10/08 02:36:40;;;;;;;;;3.33;2.33;;;;;14.72;60.23;101608.03;4979502;28;45197;-69
2022/10/08 02:39:08;;;;;;;;;1.67;0.33;;;;;14.69;59.80;101584.22;4978670;28;45396;-68
2022/10/08 02:41:39;;;;;;;;;3.00;1.67;;;;;14.67;59.57;101575.50;4979335;28;46973;-68
2022/10/08 02:44:10;;;;;;;;;1.00;1.00;;;;;14.81;60.11;101599.91;4979373;28;45555;-69
2022/10/08 02:46:40;;;;;;;;;3.67;1.00;;;;;14.83;60.21;101591.75;4980080;28;45524;-69
2022/10/08 02:49:17;;;;;;;;;1.67;1.00;;;;;14.81;60.20;101599.91;4978739;28;45512;-68
2022/10/08 02:51:48;;;;;;;;;2.33;2.33;;;;;14.68;60.26;101572.69;4979054;28;48505;-68
2022/10/08 02:54:17;;;;;;;;;1.67;1.67;;;;;14.78;60.10;101592.19;4980451;28;45320;-68
2022/10/08 02:56:46;;;;;;;;;1.67;1.67;;;;;14.43;60.36;101534.13;4979701;28;45487;-69
2022/10/08 02:59:16;;;;;;;;;0.67;0.67;;;;;14.85;60.60;101603.16;4960558;28;45408;-68
2022/10/08 03:01:42;;;;;;;;;3.67;2.00;;;;;14.67;60.57;101573.69;4960379;28;45675;-69
2022/10/08 03:04:24;;;;;;;;;5.00;4.33;;;;;14.60;60.91;101556.53;4960153;28;45235;-68
2022/10/08 03:06:51;;;;;;;;;1.00;1.00;;;;;14.80;60.93;101595.56;4960221;28;45502;-69
2022/10/08 03:09:19;;;;;;;;;0.67;0.67;;;;;14.77;60.88;101597.69;4959003;28;45500;-69
2022/10/08 03:11:45;;;;;;;;;2.33;2.33;;;;;14.31;61.27;101517.38;4960130;28;45630;-69
2022/10/08 03:14:17;;;;;;;;;1.00;1.00;;;;;14.82;61.24;101609.66;4974860;28;45472;-70
2022/10/08 03:16:45;;;;;;;;;6.00;4.67;;;;;14.83;61.36;101610.50;4958531;28;45286;-69
2022/10/08 03:19:14;;;;;;;;;3.67;2.33;;;;;14.80;61.55;101598.22;4977139;28;45524;-68
2022/10/08 03:21:42;;;;;;;;;7.33;2.00;;;;;14.25;61.50;101511.78;4979418;28;46063;-68
2022/10/08 03:24:09;;;;;;;;;2.00;2.00;;;;;14.81;61.88;101607.09;4979062;28;45483;-69
2022/10/08 03:26:35;;;;;;;;;1.67;1.00;;;;;14.80;62.09;101611.63;4979829;28;45412;-69
2022/10/08 03:29:01;;;;;;;;;3.00;1.00;;;;;14.77;62.15;101611.91;4979685;28;45246;-69
2022/10/08 03:31:26;;;;;;;;;3.00;3.00;;;;;14.71;62.03;101609.84;4979212;28;45712;-70
2022/10/08 03:33:52;;;;;;;;;3.00;3.00;;;;;14.71;61.98;101609.00;4979272;28;45504;-69
2022/10/08 03:36:20;;;;;;;;;2.33;2.33;;;;;14.75;62.41;101627.28;4994406;28;45453;-69
2022/10/08 03:38:46;;;;;;;;;2.33;1.33;;;;;14.07;62.28;101508.22;4979559;28;45458;-69
2022/10/08 03:41:11;;;;;;;;;3.00;1.67;;;;;14.75;62.50;101613.91;4979176;28;46430;-68
2022/10/08 03:43:36;;;;;;;;;1.00;1.00;;;;;14.48;62.33;101581.81;4979031;28;45280;-69
2022/10/08 03:46:02;;;;;;;;;2.67;2.67;;;;;14.73;62.56;101634.63;4994160;28;45394;-68
2022/10/08 03:48:28;;;;;;;;;4.00;3.00;;;;;14.70;62.72;101639.44;4979058;28;45520;-69
2022/10/08 03:50:59;;;;;;;;;3.00;2.33;;;;;14.72;62.48;101640.97;4979302;28;46614;-69
2022/10/08 03:53:26;;;;;;;;;3.00;2.00;;;;;14.03;62.06;101529.06;4980597;28;45484;-69
2022/10/08 03:55:52;;;;;;;;;3.67;2.33;;;;;14.69;62.68;101637.75;4979583;28;45346;-68
2022/10/08 03:58:18;;;;;;;;;4.00;2.00;;;;;14.67;63.15;101643.25;4979124;28;45193;-69
2022/10/08 04:00:55;;;;;;;;;2.00;2.00;;;;;14.61;63.42;101647.34;4978774;28;46201;-70
2022/10/08 04:03:20;;;;;;;;;2.33;1.33;;;;;14.64;63.33;101643.56;4977451;28;46077;-69
2022/10/08 04:05:48;;;;;;;;;3.00;2.00;;;;;14.57;63.18;101645.97;4978557;28;55434;-69
2022/10/08 04:08:14;;;;;;;;;1.67;1.00;;;;;14.66;63.33;101649.63;4977524;28;45516;-70
2022/10/08 04:10:39;;;;;;;;;3.33;2.00;;;;;14.57;63.58;101642.47;4978395;28;50663;-70
2022/10/08 04:13:04;;;;;;;;;1.67;1.67;;;;;14.53;63.38;101628.53;4977542;28;45855;-69
2022/10/08 04:15:30;;;;;;;;;2.33;2.33;;;;;14.66;63.32;101660.31;4978495;28;45180;-68
2022/10/08 04:17:55;;;;;;;;;3.00;2.33;;;;;14.65;63.64;101658.63;4977632;28;55315;-69
2022/10/08 04:20:20;;;;;;;;;2.00;2.00;;;;;14.53;64.30;101644.59;4978545;28;45409;-69
2022/10/08 04:22:47;;;;;;;;;4.00;2.00;;;;;14.55;64.17;101655.97;4976979;28;45691;-69
2022/10/08 04:25:13;;;;;;;;;3.33;1.33;;;;;14.51;63.76;101651.94;4978460;28;45499;-70
2022/10/08 04:27:38;;;;;;;;;3.00;2.33;;;;;14.46;64.84;101645.34;4978111;28;45330;-68
2022/10/08 04:30:04;;;;;;;;;2.00;2.00;;;;;14.47;64.58;101649.69;4978632;28;45623;-69
2022/10/08 04:32:30;;;;;;;;;4.00;3.00;;;;;14.58;65.03;101673.56;4978485;28;45238;-69
2022/10/08 04:34:55;;;;;;;;;3.00;1.67;;;;;14.22;64.94;101608.38;4977843;28;58370;-70
2022/10/08 04:37:21;;;;;;;;;2.67;2.67;;;;;14.57;65.52;101677.25;4994057;28;45675;-68
2022/10/08 04:39:46;;;;;;;;;1.33;1.33;;;;;14.49;66.13;101677.16;4978255;28;46324;-70
2022/10/08 04:42:12;;;;;;;;;4.67;3.00;;;;;14.43;66.36;101677.72;4993198;28;45549;-69
2022/10/08 04:44:37;;;;;;;;;2.67;2.67;;;;;14.46;67.33;101688.16;4993683;28;45337;-70
2022/10/08 04:47:03;;;;;;;;;4.67;1.67;;;;;14.20;67.44;101648.63;4993064;28;45474;-70
2022/10/08 04:49:28;;;;;;;;;3.00;3.00;;;;;14.42;67.51;101689.41;4978015;28;45894;-70
2022/10/08 04:51:54;;;;;;;;;3.00;3.00;;;;;14.46;67.63;101702.38;4976853;28;45560;-69
2022/10/08 04:54:20;;;;;;;;;2.00;2.00;;;;;14.46;67.92;101704.19;4978245;28;45522;-69
2022/10/08 04:56:45;;;;;;;;;4.00;3.00;;;;;14.43;68.02;101707.13;4978361;28;45312;-69
2022/10/08 04:59:10;;;;;;;;;2.33;2.00;;;;;14.27;67.97;101668.47;4977921;28;46827;-69
2022/10/08 05:01:36;;;;;;;;;3.67;2.33;;;;;14.46;68.06;101698.84;4976432;28;57035;-69
2022/10/08 05:04:01;;;;;;;;;4.00;2.00;;;;;13.81;67.89;101588.22;4978136;28;45331;-69
2022/10/08 05:06:29;;;;;;;;;2.67;2.67;;;;;14.39;67.60;101695.84;4978356;28;45465;-69
2022/10/08 05:08:55;;;;;;;;;4.33;2.67;;;;;14.50;67.61;101706.44;4977617;28;45800;-69
2022/10/08 05:11:23;;;;;;;;;2.33;1.67;;;;;14.44;67.44;101695.47;4992590;28;45815;-69
2022/10/08 05:13:50;;;;;;;;;6.00;1.00;;;;;14.36;67.24;101695.31;4977864;28;45333;-69
2022/10/08 05:16:18;;;;;;;;;3.67;3.00;;;;;14.33;67.29;101685.75;4976838;28;45592;-68
2022/10/08 05:18:44;;;;;;;;;1.67;1.67;;;;;14.50;67.57;101706.44;4976413;28;47363;-69
2022/10/08 05:21:20;;;;;;;;;5.67;4.00;;;;;14.50;67.94;101708.25;4977891;28;45230;-67
2022/10/08 05:23:46;;;;;;;;;5.33;4.67;;;;;14.38;67.66;101701.34;4992587;28;45255;-67
2022/10/08 05:26:24;;;;;;;;;3.33;2.67;;;;;14.40;67.66;101710.91;4977833;28;45467;-70
2022/10/08 05:28:53;;;;;;;;;4.00;2.67;;;;;14.13;67.97;101668.91;4977176;28;45941;-70
2022/10/08 05:31:19;;;;;;;;;3.00;3.00;;;;;14.34;67.90;101706.16;4992635;28;45284;-69
2022/10/08 05:33:44;;;;;;;;;3.33;3.33;;;;;14.45;67.85;101734.63;4977691;28;45409;-70
2022/10/08 05:36:16;;;;;;;;;3.67;2.67;;;;;14.42;68.10;101727.69;4976579;28;45479;-69
2022/10/08 05:38:42;;;;;;;;;1.67;1.67;;;;;14.44;68.08;101730.25;4975773;28;49712;-71
2022/10/08 05:41:15;;;;;;;;;4.00;2.67;;;;;14.42;67.96;101726.84;4992669;28;45424;-70
2022/10/08 05:43:41;;;;;;;;;4.33;3.67;;;;;14.40;67.93;101723.47;4977877;28;45490;-69
2022/10/08 05:46:07;;;;;;;;;6.00;4.67;;;;;14.39;68.15;101738.66;4980093;28;45455;-68
2022/10/08 05:48:33;;;;;;;;;1.67;1.67;;;;;14.37;67.73;101734.44;4976936;28;46681;-70
2022/10/08 05:51:04;;;;;;;;;15.00;8.00;;;;;14.39;68.11;101740.50;4977543;28;45478;-68
2022/10/08 05:53:30;;;;;;;;;2.00;2.00;;;;;13.79;68.38;101649.00;4976167;28;45438;-69
2022/10/08 05:56:00;;;;;;;;;7.67;4.00;;;;;14.22;68.07;101710.00;4977405;28;45257;-69
2022/10/08 05:58:26;;;;;;;;;7.00;4.33;;;;;14.25;68.51;101726.63;4976805;28;45762;-70
2022/10/08 06:00:59;;;;;;;;;8.33;5.00;;;;;14.22;68.48;101726.06;4976954;28;45196;-70
2022/10/08 06:03:25;;;;;;;;;3.00;3.00;;;;;14.33;68.47;101739.25;4977606;28;45515;-70
2022/10/08 06:05:50;;;;;;;;;3.67;2.67;;;;;14.22;68.32;101724.22;4977583;28;45574;-69
2022/10/08 06:08:15;;;;;;;;;4.00;3.00;;;;;14.36;68.05;101746.16;4977136;28;46651;-69
2022/10/08 06:10:54;;;;;;;;;4.67;4.67;;;;;14.37;68.31;101755.84;4977301;28;45446;-69
2022/10/08 06:13:21;;;;;;;;;3.00;2.67;;;;;13.77;68.15;101656.31;4976183;28;45356;-69
2022/10/08 06:16:03;;;;;;;;;4.33;3.00;;;;;14.34;68.15;101756.16;4992408;28;45428;-70
2022/10/08 06:18:32;;;;;;;;;2.67;2.67;;;;;14.40;68.22;101764.44;4976834;28;46586;-70
2022/10/08 06:21:09;;;;;;;;;5.33;5.33;;;;;14.17;68.26;101731.81;4992055;28;45445;-68
2022/10/08 06:23:35;;;;;;;;;3.33;3.33;;;;;14.43;67.99;101760.66;4977383;28;45258;-70
2022/10/08 06:26:08;;;;;;;;;4.33;3.33;;;;;14.34;68.35;101750.78;4977253;28;45450;-70
2022/10/08 06:28:35;;;;;;;;;7.33;4.00;;;;;14.34;67.83;101756.16;4992035;28;47697;-69
2022/10/08 06:31:01;;;;;;;;;3.67;3.67;;;;;14.32;68.27;101743.75;4977110;28;45326;-71
2022/10/08 06:33:27;;;;;;;;;4.33;2.67;;;;;14.52;67.96;101790.09;4975752;28;45272;-70
2022/10/08 06:35:53;;;;;;;;;4.00;2.67;;;;;14.51;67.76;101772.34;4977418;28;45524;-70
2022/10/08 06:38:18;;;;;;;;;2.67;2.33;;;;;14.51;67.90;101784.88;4976690;28;46668;-69
2022/10/08 06:40:44;;;;;;;;;7.33;4.67;;;;;14.59;67.99;101803.72;4976793;28;45501;-70
2022/10/08 06:43:19;;;;;;;;;4.67;3.00;;;;;14.19;68.29;101729.84;4977251;28;45474;-69
2022/10/08 06:45:45;;;;;;;;;8.33;7.33;;;;;13.94;68.08;101675.13;4977386;28;45502;-69
2022/10/08 06:48:12;;;;;;;;;3.33;3.33;;;;;14.25;67.92;101726.63;4975327;28;47450;-71
2022/10/08 06:50:38;;;;;;;;;8.67;7.33;;;;;14.74;67.37;101782.69;4993141;28;45618;-70
2022/10/08 06:53:05;;;;;;;;;7.67;4.67;;;;;14.85;67.52;101804.78;4978764;28;45318;-70
2022/10/08 06:55:32;;;;;;;;;4.33;3.33;;;;;14.88;67.46;101809.84;4980350;28;45315;-70
2022/10/08 06:57:58;;;;;;;;;5.00;4.00;;;;;14.89;66.90;101805.34;4979962;28;47195;-69
2022/10/08 07:00:23;;;;;;;;;6.00;5.33;;;;;14.96;67.13;101817.16;4979983;28;45431;-71
2022/10/08 07:02:49;;;;;;;;;3.33;2.00;;;;;14.93;67.13;101796.03;4979970;28;45407;-69
2022/10/08 07:05:14;;;;;;;;;3.67;2.33;;;;;15.05;66.81;101810.09;4980415;28;45574;-70
2022/10/08 07:07:39;;;;;;;;;4.33;3.00;;;;;15.07;66.82;101813.47;4979546;28;45747;-70
2022/10/08 07:10:05;;;;;;;;;5.33;3.00;;;;;15.06;66.73;101807.25;4994975;28;46467;-70
2022/10/08 07:12:31;;;;;;;;;6.00;5.00;;;;;15.65;65.69;101799.78;4994985;28;45430;-69
2022/10/08 07:14:57;;;;;;;;;2.67;2.67;;;;;16.44;63.59;101802.53;4980016;28;45381;-70
2022/10/08 07:17:25;;;;;;;;;4.00;3.00;;;;;17.33;61.16;101829.06;4979567;28;46480;-70
2022/10/08 07:19:51;;;;;;;;;3.33;3.33;;;;;17.55;59.15;101752.34;4980044;28;45328;-71
2022/10/08 07:22:16;;;;;;;;;3.67;3.67;;;;;18.14;57.83;101780.03;4980608;28;45261;-71
2022/10/08 07:24:41;;;;;;;;;6.00;4.00;;;;;18.43;56.65;101764.22;4980541;28;45507;-70
2022/10/08 07:27:07;;;;;;;;;3.00;3.00;;;;;19.38;54.68;101828.94;4979815;28;46492;-69
2022/10/08 07:29:33;;;;;;;;;2.67;2.67;;;;;19.98;53.42;101818.34;4980566;28;45484;-71
2022/10/08 07:31:58;;;;;;;;;2.33;2.33;;;;;20.81;51.10;101836.41;4980491;28;46302;-70
2022/10/08 07:34:23;;;;;;;;;5.67;5.00;;;;;21.33;49.88;101829.28;4979666;28;45373;-71
2022/10/08 07:36:49;;;;;;;;;3.00;3.00;;;;;21.84;48.53;101835.53;4995679;28;47872;-70
2022/10/08 07:39:19;;;;;;;;;3.33;2.33;;;;;22.33;47.47;101845.59;4981221;28;45312;-70
2022/10/08 07:41:45;;;;;;;;;5.00;3.00;;;;;22.92;45.90;101848.00;4979554;28;45203;-71
2022/10/08 07:44:12;;;;;;;;;5.33;4.00;;;;;23.36;44.47;101824.03;4979967;28;45261;-70
2022/10/08 07:46:42;;;;;;;;;5.67;5.00;;;;;23.91;43.64;101843.03;4979109;28;45751;-70
2022/10/08 07:49:08;;;;;;;;;6.33;4.33;;;;;24.06;43.24;101837.44;4979257;28;45908;-71
2022/10/08 07:51:34;;;;;;;;;6.33;5.33;;;;;24.35;42.54;101866.13;4979524;28;45294;-70
2022/10/08 07:54:00;;;;;;;;;8.33;7.00;;;;;24.59;41.88;101868.22;4979463;28;45542;-70
2022/10/08 07:56:26;;;;;;;;;3.67;3.00;;;;;24.82;41.18;101867.78;4979415;28;46286;-70
2022/10/08 07:58:51;;;;;;;;;4.00;3.00;;;;;25.24;40.13;101868.41;4978887;28;45279;-70
2022/10/08 08:01:27;;;;;;;;;4.25;1.75;;;;;25.55;39.69;101881.28;4978699;28;45546;-70
2022/10/08 08:03:54;;;;;;;;;6.00;5.33;;;;;25.57;38.29;101814.63;4979104;28;45242;-71
2022/10/08 08:06:19;;;;;;;;;4.00;3.00;;;;;26.45;37.66;101887.53;4977753;28;48042;-71
2022/10/08 08:08:45;;;;;;;;;3.00;3.00;;;;;26.93;36.79;101864.00;4978638;28;45346;-70
2022/10/08 08:11:15;;;;;;;;;5.67;4.33;;;;;27.42;35.72;101886.81;4978919;28;45280;-70
2022/10/08 08:13:41;;;;;;;;;4.00;3.00;;;;;27.35;35.80;101866.94;4977701;28;45569;-70
2022/10/08 08:16:17;;;;;;;;;2.33;1.33;;;;;27.42;35.49;101883.25;4978677;28;46843;-70
2022/10/08 08:18:45;;;;;;;;;4.00;3.00;;;;;26.55;35.24;101730.50;4959331;28;45416;-70
2022/10/08 08:21:13;;;;;;;;;5.67;3.67;;;;;27.84;34.88;101892.44;4974260;28;45366;-70
2022/10/08 08:23:41;;;;;;;;;4.67;4.00;;;;;28.35;34.42;101891.09;4959210;28;45357;-70
2022/10/08 08:26:09;;;;;;;;;2.67;2.67;;;;;28.63;33.31;101888.53;4958894;28;48026;-70
2022/10/08 08:28:34;;;;;;;;;3.67;3.67;;;;;28.61;33.32;101887.91;4959392;28;45504;-70
2022/10/08 08:31:15;;;;;;;;;7.33;6.00;;;;;28.72;33.08;101906.25;4959348;28;45337;-71
2022/10/08 08:33:42;;;;;;;;;5.00;4.00;;;;;28.57;33.19;101905.88;4959326;28;45618;-71
2022/10/08 08:36:08;;;;;;;;;2.67;2.67;;;;;28.41;33.38;101898.34;4959154;28;46039;-72
2022/10/08 08:38:35;;;;;;;;;4.00;2.00;;;;;28.22;33.41;101905.75;4958878;28;45460;-71
2022/10/08 08:41:26;;;;;;;;;4.00;2.33;;;;;28.01;33.26;101920.78;4959161;28;45328;-70
2022/10/08 08:44:01;;;;;;;;;3.00;3.00;;;;;27.83;33.67;101921.69;4939799;28;45294;-71
2022/10/08 08:46:31;;;;;;;;;5.00;4.33;;;;;27.51;34.22;101915.50;4975169;28;47420;-70
2022/10/08 08:49:02;;;;;;;;;6.67;6.67;;;;;27.44;33.56;101928.41;4978287;28;45298;-70
2022/10/08 08:51:27;;;;;;;;;4.33;3.00;;;;;27.13;34.19;101939.44;4978146;28;45452;-70
2022/10/08 08:53:53;;;;;;;;;4.00;3.67;;;;;26.81;34.48;101909.47;4977085;28;45398;-71
2022/10/08 08:56:23;;;;;;;;;3.67;3.67;;;;;26.98;34.76;101937.03;4993156;28;48571;-71
2022/10/08 08:59:24;;;;;;;;;4.67;4.00;;;;;26.86;34.76;101939.66;4976841;28;45701;-71
2022/10/08 09:01:55;;;;;;;;;1.25;1.25;;;;;26.41;34.48;101932.66;4936758;28;45373;-71
2022/10/08 09:04:41;;;;;;;;;3.67;3.00;;;;;25.65;34.95;101868.88;4969726;28;45513;-70
2022/10/08 09:07:13;;;;;;;;;6.33;6.33;;;;;26.13;35.05;101938.47;4977959;28;46038;-70
2022/10/08 09:09:43;;;;;;;;;4.33;2.00;;;;;26.36;34.88;101936.88;4993074;28;45376;-72
2022/10/08 09:12:15;;;;;;;;;5.67;4.67;;;;;26.52;34.20;101948.31;4992941;28;45310;-71
2022/10/08 09:14:44;;;;;;;;;3.67;1.67;;;;;26.55;33.79;101920.59;4976536;28;45268;-69
2022/10/08 09:17:31;;;;;;;;;3.00;3.00;;;;;26.89;33.19;101944.66;4978194;28;46288;-71
2022/10/08 09:19:57;;;;;;;;;8.67;5.00;;;;;27.19;33.26;101949.47;4978241;28;45497;-70
2022/10/08 09:22:26;;;;;;;;;3.00;2.00;;;;;27.48;32.56;101953.38;4978753;28;45391;-70
2022/10/08 09:25:00;;;;;;;;;6.00;5.00;;;;;27.99;31.03;101950.25;4978021;28;45236;-71
2022/10/08 09:27:49;;;;;;;;;6.00;5.33;;;;;28.48;30.72;101951.06;4993011;28;46392;-71
2022/10/08 09:30:34;;;;;;;;;6.33;3.00;;;;;28.74;30.33;101956.13;4981026;28;45502;-71
2022/10/08 09:33:05;;;;;;;;;2.33;2.33;;;;;28.67;29.93;101955.41;4979213;28;45498;-71
2022/10/08 09:35:33;;;;;;;;;4.33;4.00;;;;;28.34;30.60;101968.75;4978424;28;45286;-70
2022/10/08 09:37:59;;;;;;;;;5.33;4.33;;;;;27.74;31.25;101965.91;4977862;28;46531;-70
2022/10/08 09:40:26;;;;;;;;;5.33;4.00;;;;;27.18;30.70;101953.25;4976313;28;45436;-71
2022/10/08 09:43:12;;;;;;;;;3.33;3.33;;;;;26.69;31.75;101971.28;4978180;28;45288;-72
2022/10/08 09:45:41;;;;;;;;;3.67;2.67;;;;;26.23;32.63;101956.03;4978389;28;45387;-71
2022/10/08 09:48:22;;;;;;;;;4.67;4.67;;;;;25.66;33.15;101902.41;4976393;28;47063;-70
2022/10/08 09:51:11;;;;;;;;;10.00;6.00;;;;;25.74;33.70;101970.28;4977768;28;45321;-71
2022/10/08 09:53:47;;;;;;;;;6.00;4.00;;;;;25.26;34.14;101973.28;4976657;28;45541;-70
2022/10/08 09:56:14;;;;;;;;;7.00;5.67;;;;;24.85;34.17;101962.59;4977924;28;45504;-71
2022/10/08 09:58:53;;;;;;;;;4.33;3.33;;;;;24.57;35.21;101955.44;4991973;28;48318;-71
2022/10/08 10:01:19;;;;;;;;;6.33;4.00;;;;;24.43;35.73;101980.13;4992140;28;46658;-71
2022/10/08 10:04:05;;;;;;;;;4.00;4.00;;;;;24.09;35.95;101981.84;4992189;28;45507;-71
2022/10/08 10:06:34;;;;;;;;;3.25;3.25;;;;;23.60;36.75;101982.03;4975787;28;45272;-71
2022/10/08 10:09:01;;;;;;;;;6.67;4.00;;;;;23.25;37.09;101978.44;4977196;28;45707;-71
2022/10/08 10:11:47;;;;;;;;;3.00;3.00;;;;;22.42;39.22;101982.63;4977479;28;45475;-70
2022/10/08 10:14:34;;;;;;;;;5.00;3.00;;;;;22.16;38.99;101981.31;4977378;28;45406;-69
2022/10/08 10:17:16;;;;;;;;;3.00;2.00;;;;;21.68;38.10;101944.00;4977782;28;45468;-71
2022/10/08 10:20:00;;;;;;;;;2.00;2.00;;;;;21.38;38.29;101965.63;4977326;28;45774;-71
2022/10/08 10:22:34;;;;;;;;;3.33;2.33;;;;;21.30;38.99;101987.38;4977393;28;46565;-71
2022/10/08 10:25:15;;;;;;;;;2.00;2.00;;;;;21.37;39.01;101988.31;4976250;28;45361;-72
2022/10/08 10:27:52;;;;;;;;;2.33;2.33;;;;;21.32;39.30;101973.66;4979463;28;45257;-70
2022/10/08 10:30:24;;;;;;;;;4.00;3.00;;;;;21.22;39.55;101961.22;4980128;28;46903;-70
2022/10/08 10:33:08;;;;;;;;;4.00;3.00;;;;;21.38;40.06;101998.09;4995237;28;45298;-71
2022/10/08 10:35:39;;;;;;;;;2.00;1.00;;;;;21.14;38.85;101979.38;4980445;28;45379;-71
2022/10/08 10:38:16;;;;;;;;;4.33;4.33;;;;;20.92;39.75;101987.34;4980703;28;45564;-71
2022/10/08 10:40:46;;;;;;;;;1.00;1.00;;;;;20.82;39.87;101986.78;4980404;28;46570;-70
2022/10/08 10:43:19;;;;;;;;;2.33;2.00;;;;;20.71;40.63;101989.03;4980429;28;45455;-70
2022/10/08 10:45:52;;;;;;;;;9.67;7.00;;;;;20.54;40.78;101967.53;4995542;28;45250;-70
2022/10/08 10:48:18;;;;;;;;;5.00;5.00;;;;;20.70;40.82;101981.97;4995631;28;45351;-71
2022/10/08 10:50:59;;;;;;;;;4.00;2.33;;;;;20.65;40.61;101982.50;4980286;28;46220;-71
2022/10/08 10:53:47;;;;;;;;;6.67;4.00;;;;;20.51;41.37;101992.22;4980526;28;45405;-71
2022/10/08 10:56:19;;;;;;;;;2.67;2.67;;;;;20.43;41.42;101986.03;4980041;28;45399;-71
2022/10/08 10:59:05;;;;;;;;;3.67;3.00;;;;;20.59;41.35;101985.91;4995140;28;45467;-70
2022/10/08 11:01:56;;;;;;;;;5.67;4.67;;;;;20.47;40.95;101987.34;4995204;28;47797;-71
2022/10/08 11:04:32;;;;;;;;;5.00;4.00;;;;;19.75;40.58;101907.38;4975920;28;45839;-70
2022/10/08 11:07:13;;;;;;;;;6.00;5.00;;;;;20.03;41.15;101979.81;4979040;28;45683;-72
2022/10/08 11:10:01;;;;;;;;;4.67;4.67;;;;;19.94;41.24;101970.03;4980840;28;45364;-71
2022/10/08 11:12:35;;;;;;;;;7.00;7.00;;;;;19.99;40.43;101978.44;4975223;28;46474;-72
2022/10/08 11:15:31;;;;;;;;;2.00;2.00;;;;;20.17;39.88;101995.25;4978673;28;46542;-69
2022/10/08 11:18:32;;;;;;;;;4.00;4.00;;;;;20.25;39.61;101987.13;4980974;28;45316;-71
2022/10/08 11:21:16;;;;;;;;;3.00;2.00;;;;;20.34;39.71;101987.91;4986758;28;45321;-70
2022/10/08 11:24:02;;;;;;;;;2.00;2.00;;;;;20.49;40.02;101993.41;4984270;28;49081;-72
2022/10/08 11:26:43;;;;;;;;;6.33;6.33;;;;;20.26;40.47;101967.19;4978752;28;45415;-71
2022/10/08 11:29:27;;;;;;;;;1.00;1.00;;;;;20.06;40.76;101990.25;4979973;28;45413;-70
2022/10/08 11:31:53;;;;;;;;;1.00;1.00;;;;;19.60;40.57;101971.19;4979813;28;45309;-71
2022/10/08 11:34:32;;;;;;;;;3.00;1.67;;;;;19.60;40.41;101971.19;4977753;28;47682;-71
2022/10/08 11:37:24;;;;;;;;;10.67;8.33;;;;;19.69;40.23;101999.84;4978629;28;45425;-70
2022/10/08 11:40:06;;;;;;;;;10.33;7.00;;;;;19.67;40.63;101966.78;4994187;28;45586;-71
2022/10/08 11:42:46;;;;;;;;;4.00;2.33;;;;;19.88;40.67;101993.19;4980557;28;45324;-72